Buoy 52514

sailwx.info

Track history (hours):
 
Tides and Currents Weather Stations Pressure Air Temp Water Temp Dewpoint Dewpoint Depression Visibility Wind Speed Wind Dir Waves Ship Positions

Drifting buoy 52514

Last reported at 2016-May-24 05:00 UTC. Time now 2016-May-24 08:01 UTC.
Position N 21°45' E 133°41'.

Date/timePositionNaut miles runAvg speedWind from/ knotsBaromVisibWave heightAir tempDewpointWater temp
2016-May-24 05:00N 21°45' E 133°41'4 1.0
2016-May-24 01:00N 21°47' E 133°38'0 0.1
2016-May-24 00:00N 21°47' E 133°38'3 1.3
2016-May-23 22:00N 21°48' E 133°35'1 1.2
2016-May-23 21:00N 21°50' E 133°35'1 0.7
2016-May-23 20:00N 21°50' E 133°34'0 0.0
2016-May-23 19:00N 21°50' E 133°34'5 0.8
2016-May-23 13:00N 21°54' E 133°32'1 1.1
2016-May-23 12:00N 21°55' E 133°33'0 0.5
2016-May-23 11:00N 21°55' E 133°32'2 2.2
2016-May-23 10:00N 21°57' E 133°32'1 0.7
2016-May-23 09:00N 21°58' E 133°32'1 0.4
2016-May-23 07:00N 21°59' E 133°33'1 0.4
2016-May-23 05:00N 21°59' E 133°32'0 0.0
2016-May-23 04:00N 21°59' E 133°32'1 0.3
2016-May-23 01:00N 21°59' E 133°33'1 0.2
2016-May-22 22:00N 21°59' E 133°32'1 0.9
2016-May-22 21:00N 21°58' E 133°33'0 0.1
2016-May-22 18:00N 21°58' E 133°33'0 0.0
2016-May-22 17:00N 21°58' E 133°33'2 0.5
2016-May-22 13:00N 21°56' E 133°33'1 0.3
2016-May-22 11:00N 21°55' E 133°33'1 1.1
2016-May-22 10:00N 21°54' E 133°33'6 1.1
2016-May-22 05:00N 21°49' E 133°33'0 0.0
2016-May-22 02:00N 21°49' E 133°33'0 0.0
2016-May-22 01:00N 21°49' E 133°33'1 0.6
2016-May-21 23:00N 21°48' E 133°32'2 2.4
2016-May-21 22:00N 21°47' E 133°29'0 0.2
2016-May-21 21:00N 21°47' E 133°30'2 2.2
2016-May-21 20:00N 21°46' E 133°27'1 0.6
2016-May-21 18:00N 21°46' E 133°26'0 0.0
2016-May-21 17:00N 21°46' E 133°26'6 1.1
2016-May-21 12:00N 21°42' E 133°21'2 1.2
2016-May-21 10:00N 21°42' E 133°19'0 0.2
2016-May-21 08:00N 21°42' E 133°18'6 1.9
2016-May-21 05:00N 21°43' E 133°12'3 0.4
2016-May-20 22:00N 21°43' E 133°09'1 0.6
2016-May-20 20:00N 21°44' E 133°08'0 0.2
2016-May-20 18:00N 21°44' E 133°07'1 0.4
2016-May-20 16:00N 21°44' E 133°08'0 0.1
2016-May-20 12:00N 21°45' E 133°07'0 0.1
2016-May-20 11:00N 21°45' E 133°07'4 1.2
2016-May-20 08:00N 21°48' E 133°09'0 0.0
2016-May-20 05:00N 21°48' E 133°09'2 1.7
2016-May-20 04:00N 21°49' E 133°09'0 0.1
2016-May-20 02:00N 21°49' E 133°09'0 0.2
2016-May-20 00:00N 21°49' E 133°08'0 0.4
2016-May-19 23:00N 21°49' E 133°08'1 0.4
2016-May-19 21:00N 21°49' E 133°09'0 0.2
2016-May-19 20:00N 21°49' E 133°09'1 0.6
2016-May-19 19:00N 21°48' E 133°09'0 0.0
2016-May-19 18:00N 21°48' E 133°09'5 0.9
2016-May-19 12:00N 21°45' E 133°14'1 1.0
2016-May-19 11:00N 21°45' E 133°15'1 0.5
2016-May-19 09:00N 21°45' E 133°16'0 0.3
2016-May-19 08:00N 21°44' E 133°16'0 0.2
2016-May-19 07:00N 21°44' E 133°16'1 0.9
2016-May-19 06:00N 21°44' E 133°17'1 0.4
2016-May-19 04:00N 21°43' E 133°17'6 1.0
2016-May-18 22:00N 21°38' E 133°14'2 1.1
2016-May-18 20:00N 21°35' E 133°13'1 0.5
2016-May-18 18:00N 21°34' E 133°13'1 1.4
2016-May-18 17:00N 21°33' E 133°13'0 0.0
2016-May-18 16:00N 21°33' E 133°13'4 1.3
2016-May-18 13:00N 21°30' E 133°11'2 1.7
2016-May-18 12:00N 21°28' E 133°10'0 0.0
2016-May-18 11:00N 21°28' E 133°10'3 1.3
2016-May-18 09:00N 21°27' E 133°07'2 1.5
2016-May-18 08:00N 21°26' E 133°06'1 0.7
2016-May-18 07:00N 21°26' E 133°06'1 1.1
2016-May-18 06:00N 21°25' E 133°05'1 1.4
2016-May-18 05:00N 21°24' E 133°04'3 0.8
2016-May-18 01:00N 21°23' E 133°01'1 0.8
2016-May-18 00:00N 21°23' E 132°60'2 2.0
2016-May-17 23:00N 21°23' E 132°58'1 0.8
2016-May-17 22:00N 21°23' E 132°57'1 0.4
2016-May-17 20:00N 21°22' E 132°57'2 1.6
2016-May-17 19:00N 21°22' E 132°55'2 0.8
2016-May-17 17:00N 21°22' E 132°53'0 0.0
2016-May-17 16:00N 21°22' E 132°53'3 1.1
2016-May-17 13:00N 21°20' E 132°50'0 0.5
2016-May-17 12:00N 21°20' E 132°50'1 1.0
2016-May-17 11:00N 21°19' E 132°49'0 0.0
2016-May-17 10:00N 21°19' E 132°49'1 0.7
2016-May-17 09:00N 21°19' E 132°49'1 0.8
2016-May-17 08:00N 21°18' E 132°49'1 0.7
2016-May-17 07:00N 21°18' E 132°49'0 0.3
2016-May-17 06:00N 21°19' E 132°49'0 0.0
2016-May-17 05:00N 21°19' E 132°49'0 0.0
2016-May-17 04:00N 21°19' E 132°49'2 0.6
2016-May-17 01:00N 21°20' E 132°49'2 1.1
2016-May-16 23:00N 21°21' E 132°47'0 0.1
2016-May-16 22:00N 21°21' E 132°47'2 1.8
2016-May-16 21:00N 21°21' E 132°45'0 0.2
2016-May-16 20:00N 21°21' E 132°44'2 1.7
2016-May-16 19:00N 21°20' E 132°43'0 0.1
2016-May-16 17:00N 21°21' E 132°43'0 0.0
2016-May-16 16:00N 21°21' E 132°43'3 0.7
2016-May-16 12:00N 21°18' E 132°42'0 0.4
2016-May-16 11:00N 21°17' E 132°42'2 1.6
2016-May-16 10:00N 21°16' E 132°43'1 1.0
2016-May-16 09:00N 21°16' E 132°44'1 0.6
2016-May-16 08:00N 21°15' E 132°44'2 1.0
2016-May-16 06:00N 21°15' E 132°46'0 0.1
2016-May-16 05:00N 21°15' E 132°46'2 0.6
2016-May-16 01:00N 21°17' E 132°47'2 1.6
2016-May-16 00:00N 21°18' E 132°45'1 0.9
2016-May-15 23:00N 21°18' E 132°46'1 0.3
2016-May-15 21:00N 21°19' E 132°45'1 1.0
2016-May-15 20:00N 21°20' E 132°45'1 1.2
2016-May-15 19:00N 21°19' E 132°44'0 0.0
2016-May-15 17:00N 21°19' E 132°44'0 0.0
2016-May-15 16:00N 21°19' E 132°44'1 0.5
2016-May-15 13:00N 21°18' E 132°45'2 0.7
2016-May-15 10:00N 21°17' E 132°47'1 0.8
2016-May-15 09:00N 21°16' E 132°48'1 0.7
2016-May-15 08:00N 21°16' E 132°48'2 1.8
2016-May-15 07:00N 21°15' E 132°50'0 0.0
2016-May-15 06:00N 21°15' E 132°50'2 2.1
2016-May-15 05:00N 21°15' E 132°52'5 1.7
2016-May-15 02:00N 21°17' E 132°57'0 0.0
2016-May-15 01:00N 21°17' E 132°57'0 0.5
2016-May-15 00:00N 21°18' E 132°57'1 0.8
2016-May-14 23:00N 21°18' E 132°58'0 0.1
2016-May-14 22:00N 21°18' E 132°58'0 0.2
2016-May-14 20:00N 21°17' E 132°58'11 1.3
2016-May-14 12:00N 21°09' E 133°06'3 2.6
2016-May-14 11:00N 21°07' E 133°07'0 0.0
2016-May-14 10:00N 21°07' E 133°07'1 0.7
2016-May-14 09:00N 21°06' E 133°08'2 1.7
2016-May-14 08:00N 21°05' E 133°08'5 1.7
2016-May-14 05:00N 20°60' E 133°08'  
Track history (hours):
 
Tides and Currents Weather Stations Pressure Air Temp Water Temp Dewpoint Dewpoint Depression Visibility Wind Speed Wind Dir Waves Ship Positions

Drifting buoy 52514

Last reported at 2016-May-24 05:00 UTC. Time now 2016-May-24 08:01 UTC.
Position N 21°45' E 133°41'.

Date/timePositionNaut miles runAvg speedWind from/ knotsBaromVisibWave heightAir tempDewpointWater temp
2016-May-24 05:00N 21°45' E 133°41'4 1.0
2016-May-24 01:00N 21°47' E 133°38'0 0.1
2016-May-24 00:00N 21°47' E 133°38'3 1.3
2016-May-23 22:00N 21°48' E 133°35'1 1.2
2016-May-23 21:00N 21°50' E 133°35'1 0.7
2016-May-23 20:00N 21°50' E 133°34'0 0.0
2016-May-23 19:00N 21°50' E 133°34'5 0.8
2016-May-23 13:00N 21°54' E 133°32'1 1.1
2016-May-23 12:00N 21°55' E 133°33'0 0.5
2016-May-23 11:00N 21°55' E 133°32'2 2.2
2016-May-23 10:00N 21°57' E 133°32'1 0.7
2016-May-23 09:00N 21°58' E 133°32'1 0.4
2016-May-23 07:00N 21°59' E 133°33'1 0.4
2016-May-23 05:00N 21°59' E 133°32'0 0.0
2016-May-23 04:00N 21°59' E 133°32'1 0.3
2016-May-23 01:00N 21°59' E 133°33'1 0.2
2016-May-22 22:00N 21°59' E 133°32'1 0.9
2016-May-22 21:00N 21°58' E 133°33'0 0.1
2016-May-22 18:00N 21°58' E 133°33'0 0.0
2016-May-22 17:00N 21°58' E 133°33'2 0.5
2016-May-22 13:00N 21°56' E 133°33'1 0.3
2016-May-22 11:00N 21°55' E 133°33'1 1.1
2016-May-22 10:00N 21°54' E 133°33'6 1.1
2016-May-22 05:00N 21°49' E 133°33'0 0.0
2016-May-22 02:00N 21°49' E 133°33'0 0.0
2016-May-22 01:00N 21°49' E 133°33'1 0.6
2016-May-21 23:00N 21°48' E 133°32'2 2.4
2016-May-21 22:00N 21°47' E 133°29'0 0.2
2016-May-21 21:00N 21°47' E 133°30'2 2.2
2016-May-21 20:00N 21°46' E 133°27'1 0.6
2016-May-21 18:00N 21°46' E 133°26'0 0.0
2016-May-21 17:00N 21°46' E 133°26'6 1.1
2016-May-21 12:00N 21°42' E 133°21'2 1.2
2016-May-21 10:00N 21°42' E 133°19'0 0.2
2016-May-21 08:00N 21°42' E 133°18'6 1.9
2016-May-21 05:00N 21°43' E 133°12'3 0.4
2016-May-20 22:00N 21°43' E 133°09'1 0.6
2016-May-20 20:00N 21°44' E 133°08'0 0.2
2016-May-20 18:00N 21°44' E 133°07'1 0.4
2016-May-20 16:00N 21°44' E 133°08'0 0.1
2016-May-20 12:00N 21°45' E 133°07'0 0.1
2016-May-20 11:00N 21°45' E 133°07'4 1.2
2016-May-20 08:00N 21°48' E 133°09'0 0.0
2016-May-20 05:00N 21°48' E 133°09'2 1.7
2016-May-20 04:00N 21°49' E 133°09'0 0.1
2016-May-20 02:00N 21°49' E 133°09'0 0.2
2016-May-20 00:00N 21°49' E 133°08'0 0.4
2016-May-19 23:00N 21°49' E 133°08'1 0.4
2016-May-19 21:00N 21°49' E 133°09'0 0.2
2016-May-19 20:00N 21°49' E 133°09'1 0.6
2016-May-19 19:00N 21°48' E 133°09'0 0.0
2016-May-19 18:00N 21°48' E 133°09'5 0.9
2016-May-19 12:00N 21°45' E 133°14'1 1.0
2016-May-19 11:00N 21°45' E 133°15'1 0.5
2016-May-19 09:00N 21°45' E 133°16'0 0.3
2016-May-19 08:00N 21°44' E 133°16'0 0.2
2016-May-19 07:00N 21°44' E 133°16'1 0.9
2016-May-19 06:00N 21°44' E 133°17'1 0.4
2016-May-19 04:00N 21°43' E 133°17'6 1.0
2016-May-18 22:00N 21°38' E 133°14'2 1.1
2016-May-18 20:00N 21°35' E 133°13'1 0.5
2016-May-18 18:00N 21°34' E 133°13'1 1.4
2016-May-18 17:00N 21°33' E 133°13'0 0.0
2016-May-18 16:00N 21°33' E 133°13'4 1.3
2016-May-18 13:00N 21°30' E 133°11'2 1.7
2016-May-18 12:00N 21°28' E 133°10'0 0.0
2016-May-18 11:00N 21°28' E 133°10'3 1.3
2016-May-18 09:00N 21°27' E 133°07'2 1.5
2016-May-18 08:00N 21°26' E 133°06'1 0.7
2016-May-18 07:00N 21°26' E 133°06'1 1.1
2016-May-18 06:00N 21°25' E 133°05'1 1.4
2016-May-18 05:00N 21°24' E 133°04'3 0.8
2016-May-18 01:00N 21°23' E 133°01'1 0.8
2016-May-18 00:00N 21°23' E 132°60'2 2.0
2016-May-17 23:00N 21°23' E 132°58'1 0.8
2016-May-17 22:00N 21°23' E 132°57'1 0.4
2016-May-17 20:00N 21°22' E 132°57'2 1.6
2016-May-17 19:00N 21°22' E 132°55'2 0.8
2016-May-17 17:00N 21°22' E 132°53'0 0.0
2016-May-17 16:00N 21°22' E 132°53'3 1.1
2016-May-17 13:00N 21°20' E 132°50'0 0.5
2016-May-17 12:00N 21°20' E 132°50'1 1.0
2016-May-17 11:00N 21°19' E 132°49'0 0.0
2016-May-17 10:00N 21°19' E 132°49'1 0.7
2016-May-17 09:00N 21°19' E 132°49'1 0.8
2016-May-17 08:00N 21°18' E 132°49'1 0.7
2016-May-17 07:00N 21°18' E 132°49'0 0.3
2016-May-17 06:00N 21°19' E 132°49'0 0.0
2016-May-17 05:00N 21°19' E 132°49'0 0.0
2016-May-17 04:00N 21°19' E 132°49'2 0.6
2016-May-17 01:00N 21°20' E 132°49'2 1.1
2016-May-16 23:00N 21°21' E 132°47'0 0.1
2016-May-16 22:00N 21°21' E 132°47'2 1.8
2016-May-16 21:00N 21°21' E 132°45'0 0.2
2016-May-16 20:00N 21°21' E 132°44'2 1.7
2016-May-16 19:00N 21°20' E 132°43'0 0.1
2016-May-16 17:00N 21°21' E 132°43'0 0.0
2016-May-16 16:00N 21°21' E 132°43'3 0.7
2016-May-16 12:00N 21°18' E 132°42'0 0.4
2016-May-16 11:00N 21°17' E 132°42'2 1.6
2016-May-16 10:00N 21°16' E 132°43'1 1.0
2016-May-16 09:00N 21°16' E 132°44'1 0.6
2016-May-16 08:00N 21°15' E 132°44'2 1.0
2016-May-16 06:00N 21°15' E 132°46'0 0.1
2016-May-16 05:00N 21°15' E 132°46'2 0.6
2016-May-16 01:00N 21°17' E 132°47'2 1.6
2016-May-16 00:00N 21°18' E 132°45'1 0.9
2016-May-15 23:00N 21°18' E 132°46'1 0.3
2016-May-15 21:00N 21°19' E 132°45'1 1.0
2016-May-15 20:00N 21°20' E 132°45'1 1.2
2016-May-15 19:00N 21°19' E 132°44'0 0.0
2016-May-15 17:00N 21°19' E 132°44'0 0.0
2016-May-15 16:00N 21°19' E 132°44'1 0.5
2016-May-15 13:00N 21°18' E 132°45'2 0.7
2016-May-15 10:00N 21°17' E 132°47'1 0.8
2016-May-15 09:00N 21°16' E 132°48'1 0.7
2016-May-15 08:00N 21°16' E 132°48'2 1.8
2016-May-15 07:00N 21°15' E 132°50'0 0.0
2016-May-15 06:00N 21°15' E 132°50'2 2.1
2016-May-15 05:00N 21°15' E 132°52'5 1.7
2016-May-15 02:00N 21°17' E 132°57'0 0.0
2016-May-15 01:00N 21°17' E 132°57'0 0.5
2016-May-15 00:00N 21°18' E 132°57'1 0.8
2016-May-14 23:00N 21°18' E 132°58'0 0.1
2016-May-14 22:00N 21°18' E 132°58'0 0.2
2016-May-14 20:00N 21°17' E 132°58'11 1.3
2016-May-14 12:00N 21°09' E 133°06'3 2.6
2016-May-14 11:00N 21°07' E 133°07'0 0.0
2016-May-14 10:00N 21°07' E 133°07'1 0.7
2016-May-14 09:00N 21°06' E 133°08'2 1.7
2016-May-14 08:00N 21°05' E 133°08'5 1.7
2016-May-14 05:00N 20°60' E 133°08'  

Dump ship's entire track history